Barbarossa — IBJD — position and weather

sailwx.info

Track history (hours):
 
Tides and Currents Weather Stations Pressure Air Temp Water Temp Dewpoint Dewpoint Depression Visibility Wind Speed Wind Dir Waves Ship Positions

Barbarossa

Last reported at 2019-Jul-22 03:38 UTC. Time now 2019-Jul-23 22:36 UTC.
Position N 42°55' E 015°12'.

Length 294 m; draft 8.1 m.

Type: Ship. MMSI: 247282900.

Date/timePositionNaut miles runAvg speedWind from/ knotsBaromVisibWave heightAir tempDewpointWater temp
2019-Jul-22 03:38N 42°55' E 015°12'320.3
2019-Jul-22 03:28N 42°58' E 015°09'920.4
2019-Jul-22 03:00N 43°05' E 014°59'1020.2
2019-Jul-22 02:30N 43°12' E 014°50'1020.2
2019-Jul-22 02:00N 43°19' E 014°39'1020.4
2019-Jul-22 01:30N 43°26' E 014°30'1020.6
2019-Jul-22 01:00N 43°33' E 014°20'3196.1
2019-Jul-22 01:00N 43°30' E 014°18'1224.6 050 / 141016.0 5.4 27.024.327.0
2019-Jul-22 00:30N 43°40' E 014°09'1020.6
2019-Jul-22 00:00N 43°47' E 013°59'1020.5
2019-Jul-21 23:30N 43°54' E 013°48'1020.5
2019-Jul-21 23:00N 43°60' E 013°37'1020.5
2019-Jul-21 22:30N 44°05' E 013°25'1020.4
2019-Jul-21 22:00N 44°11' E 013°13'1020.2
2019-Jul-21 21:30N 44°21' E 013°08'1020.0
2019-Jul-21 21:00N 44°30' E 013°04'1019.8
2019-Jul-21 20:30N 44°40' E 012°60'1019.6
2019-Jul-21 20:00N 44°49' E 012°55'1019.8
2019-Jul-21 19:30N 44°58' E 012°49'1019.7
2019-Jul-21 19:00N 45°06' E 012°42'816.9
2019-Jul-21 18:30N 45°11' E 012°32'816.0
2019-Jul-21 18:00N 45°17' E 012°25'510.8
2019-Jul-21 17:30N 45°20' E 012°19'3 6.5
2019-Jul-21 17:00N 45°22' E 012°15'3 6.3
2019-Jul-21 16:30N 45°25' E 012°16'1 3.0
2019-Jul-21 16:00N 45°27' E 012°15'1 1.1
2019-Jul-21 15:28N 45°27' E 012°15'0 0.0
2019-Jul-21 15:00N 45°27' E 012°15'0 0.0
2019-Jul-21 14:30N 45°27' E 012°15'0 0.0
2019-Jul-21 14:00N 45°27' E 012°15'0 0.0
2019-Jul-21 13:29N 45°27' E 012°15'0 0.0
2019-Jul-21 12:59N 45°27' E 012°15'0 0.0
2019-Jul-21 12:30N 45°27' E 012°15'0 0.0
2019-Jul-21 12:00N 45°27' E 012°15'0 0.0
2019-Jul-21 11:29N 45°27' E 012°15'0 0.0
2019-Jul-21 10:59N 45°27' E 012°15'0 0.0
2019-Jul-21 10:28N 45°27' E 012°15'0 0.0
2019-Jul-21 10:00N 45°27' E 012°15'0 0.0
2019-Jul-21 09:30N 45°27' E 012°15'0 0.0
2019-Jul-21 08:58N 45°27' E 012°15'0 0.0
2019-Jul-21 08:30N 45°27' E 012°15'0 0.0
2019-Jul-21 08:00N 45°27' E 012°15'0 0.0
2019-Jul-21 07:30N 45°27' E 012°15'0 0.0
2019-Jul-21 07:00N 45°27' E 012°15'0 0.0
2019-Jul-21 06:29N 45°27' E 012°15'0 0.0
2019-Jul-21 06:01N 45°27' E 012°15'1 1.1
2019-Jul-21 05:31N 45°27' E 012°15'1 2.1
2019-Jul-21 05:00N 45°26' E 012°16'3 6.3
2019-Jul-21 04:30N 45°23' E 012°16'3 5.7
2019-Jul-21 04:00N 45°20' E 012°18'3 6.3
2019-Jul-21 03:30N 45°20' E 012°22'3 5.7
2019-Jul-21 03:00N 45°19' E 012°26'815.4
2019-Jul-21 02:31N 45°15' E 012°35'1020.0
2019-Jul-21 02:01N 45°09' E 012°46'25615080.1
2019-Jul-21 02:00N 45°00' E 018°48'251519.1 070 / 131020.010.8 26.024.627.0
2019-Jul-21 01:31N 44°60' E 012°53'1020.1
2019-Jul-21 01:01N 44°51' E 012°58'1020.2
2019-Jul-21 00:31N 44°41' E 013°03'1020.2
2019-Jul-21 00:01N 44°32' E 013°09'1020.2
2019-Jul-20 23:31N 44°22' E 013°13'1019.9
2019-Jul-20 23:01N 44°14' E 013°22'1020.2
2019-Jul-20 22:31N 44°08' E 013°33'1020.3
2019-Jul-20 22:01N 44°02' E 013°44'1020.3
2019-Jul-20 21:31N 43°56' E 013°55'1020.4
2019-Jul-20 21:01N 43°50' E 014°07'1020.6
2019-Jul-20 20:31N 43°44' E 014°19'1020.8
2019-Jul-20 20:01N 43°37' E 014°30'1020.7
2019-Jul-20 19:30N 43°31' E 014°41'1020.8
2019-Jul-20 19:01N 43°23' E 014°50'1020.9
2019-Jul-20 18:31N 43°16' E 015°01'1020.8
2019-Jul-20 18:01N 43°09' E 015°11'1020.8
2019-Jul-20 17:31N 43°03' E 015°22'1020.9
2019-Jul-20 17:01N 42°58' E 015°35'1121.9
2019-Jul-20 16:31N 42°53' E 015°49'1121.6
2019-Jul-20 16:01N 42°49' E 016°02'1121.2
2019-Jul-20 15:30N 42°45' E 016°16'1021.2
2019-Jul-20 15:01N 42°41' E 016°29'1720.9
2019-Jul-20 14:13N 42°40' E 016°52'83 6.2
2019-Jul-20 01:00N 41°48' E 018°18'5814.5 320 / 81018.010.8 24.021.126.0
2019-Jul-19 20:59N 40°52' E 018°39'2222.3
2019-Jul-19 20:00N 40°30' E 018°42'11714.7 340 / 91017.010.8 25.020.726.0
2019-Jul-19 12:00N 38°42' E 019°42'20711.4 330 / 121016.0 5.4 25.022.226.0
2019-Jul-18 17:43N 37°15' E 023°41'716.7
2019-Jul-18 17:19N 37°21' E 023°44'517.4
2019-Jul-18 17:01N 37°26' E 023°44'917.7
2019-Jul-18 16:31N 37°35' E 023°42'917.5
2019-Jul-18 16:01N 37°44' E 023°40'917.2
2019-Jul-18 15:31N 37°52' E 023°36'4 8.2
2019-Jul-18 14:58N 37°56' E 023°37'0 0.0
2019-Jul-18 14:25N 37°56' E 023°37'0 0.0
2019-Jul-18 13:58N 37°56' E 023°37'0 0.0
2019-Jul-18 13:28N 37°56' E 023°37'0 0.0
2019-Jul-18 12:58N 37°56' E 023°37'0 0.0
2019-Jul-18 12:28N 37°56' E 023°37'0 0.0
2019-Jul-18 11:58N 37°56' E 023°37'0 0.0
2019-Jul-18 11:28N 37°56' E 023°37'0 0.0
2019-Jul-18 10:58N 37°56' E 023°37'0 0.0
2019-Jul-18 10:28N 37°56' E 023°37'0 0.0
2019-Jul-18 09:58N 37°56' E 023°37'0 0.0
2019-Jul-18 09:28N 37°56' E 023°37'0 0.0
2019-Jul-18 08:58N 37°56' E 023°37'0 0.0
2019-Jul-18 08:28N 37°56' E 023°37'0 0.0
2019-Jul-18 07:58N 37°56' E 023°37'0 0.0
2019-Jul-18 07:28N 37°56' E 023°37'0 0.0
2019-Jul-18 07:00N 37°56' E 023°37'0 0.0
2019-Jul-18 06:31N 37°56' E 023°37'0 0.0
2019-Jul-18 05:59N 37°56' E 023°37'0 0.0
2019-Jul-18 05:29N 37°56' E 023°37'0 0.0
2019-Jul-18 04:58N 37°56' E 023°37'0 0.0
2019-Jul-18 04:22N 37°56' E 023°37'0 0.0
2019-Jul-18 04:00N 37°56' E 023°37'0 0.0
2019-Jul-18 03:30N 37°56' E 023°37'0 0.0
2019-Jul-18 02:59N 37°56' E 023°37'0 0.0
2019-Jul-18 02:28N 37°56' E 023°37'0 0.0
2019-Jul-18 02:00N 37°56' E 023°37'1 1.1
2019-Jul-18 01:30N 37°56' E 023°37'2 4.0
2019-Jul-18 01:00N 37°54' E 023°37'714.0
2019-Jul-18 00:30N 37°48' E 023°41'1019.8
2019-Jul-18 00:00N 37°39' E 023°46'1020.0
2019-Jul-17 23:30N 37°29' E 023°50'102 4.5
2019-Jul-17 01:00N 36°24' E 022°12'7919.7 040 / 161004.010.8 25.022.226.0
2019-Jul-16 21:00N 37°18' E 021°00'46710.9 120 / 271006.0 5.4 23.018.525.0
2019-Jul-15 02:00N 43°18' E 014°30'7416.7 070 / 201013.010.8 24.018.026.0
2019-Jul-14 21:32N 44°10' E 013°16'118.5
2019-Jul-14 21:29N 44°10' E 013°15'817.9
2019-Jul-14 21:00N 44°18' E 013°09'918.7
2019-Jul-14 20:30N 44°27' E 013°05'918.5
2019-Jul-14 20:00N 44°35' E 013°01'918.3
2019-Jul-14 19:30N 44°44' E 012°57'918.3
2019-Jul-14 19:00N 44°52' E 012°52'918.2
2019-Jul-14 18:30N 45°01' E 012°46'917.5
2019-Jul-14 18:00N 45°08' E 012°39'816.4
2019-Jul-14 17:30N 45°13' E 012°30'815.8
2019-Jul-14 17:00N 45°21' E 012°30'611.4
2019-Jul-14 16:30N 45°25' E 012°26'3 5.0
2019-Jul-14 16:00N 45°25' E 012°22'2 4.2
2019-Jul-14 15:30N 45°26' E 012°19'0 1.0
2019-Jul-14 15:00N 45°26' E 012°19'0 0.0
2019-Jul-14 14:30N 45°26' E 012°19'0 0.0
2019-Jul-14 14:00N 45°26' E 012°19'0 0.0
2019-Jul-14 13:29N 45°26' E 012°19'0 0.0
2019-Jul-14 12:59N 45°26' E 012°19'0 0.0
2019-Jul-14 12:29N 45°26' E 012°19'0 0.0
2019-Jul-14 11:59N 45°26' E 012°19'0 0.0
2019-Jul-14 11:28N 45°26' E 012°19'0 0.0
2019-Jul-14 11:00N 45°26' E 012°19'0 0.0
2019-Jul-14 10:29N 45°26' E 012°19'0 0.0
2019-Jul-14 10:00N 45°26' E 012°19'0 0.0
2019-Jul-14 09:30N 45°26' E 012°19'0 0.0
2019-Jul-14 09:00N 45°26' E 012°19'0 0.0
2019-Jul-14 08:30N 45°26' E 012°19'0 0.0
2019-Jul-14 08:00N 45°26' E 012°19'0 0.0
2019-Jul-14 07:28N 45°26' E 012°19'0 0.0
2019-Jul-14 06:58N 45°26' E 012°19'0 0.0
2019-Jul-14 06:28N 45°26' E 012°19'0 0.0
2019-Jul-14 05:58N 45°26' E 012°19'0 0.0
2019-Jul-14 05:30N 45°26' E 012°19'1 2.0
2019-Jul-14 05:00N 45°26' E 012°20'2 3.9
2019-Jul-14 04:30N 45°26' E 012°23'3 5.8
2019-Jul-14 04:00N 45°25' E 012°27'4 8.1
2019-Jul-14 03:31N 45°23' E 012°31'816.2
2019-Jul-14 03:01N 45°15' E 012°35'918.7
2019-Jul-14 02:31N 45°10' E 012°46'1020.9
2019-Jul-14 02:01N 45°00' E 012°53'1121.2
2019-Jul-14 01:31N 44°51' E 012°59'1121.1
2019-Jul-14 01:01N 44°41' E 013°04'3189.2
2019-Jul-14 01:00N 44°42' E 013°00'1326.6 040 / 171015.010.8 25.022.226.0
2019-Jul-14 00:30N 44°31' E 013°08'1121.2
2019-Jul-14 00:01N 44°20' E 013°13'1520.5
2019-Jul-13 23:16N 44°10' E 013°28'2120.7
2019-Jul-13 22:17N 43°58' E 013°51'1511.4
2019-Jul-13 21:00N 43°48' E 014°06'7826.1 030 / 151012.0 5.4 25.019.125.0
2019-Jul-13 18:00N 42°54' E 015°24'11614.5 050 / 101016.0 5.4 27.024.3
2019-Jul-13 10:00N 42°36' E 018°00'61 6.8 170 / 91013.0 5.4 25.019.126.0
2019-Jul-13 01:00N 41°36' E 018°18'6312.5 320 / 71015.010.8 25.022.226.0
2019-Jul-12 20:00N 40°36' E 018°42'5719.0 270 / 151014.0 5.4 23.018.525.0
2019-Jul-12 17:00N 39°42' E 019°06'8113.5 290 / 71013.0 5.4 24.021.124.0
2019-Jul-12 11:00N 38°30' E 019°54'5317.8 300 / 251015.010.8 26.018.626.0
2019-Jul-12 08:00N 37°42' E 020°24'5213.1 320 / 191014.0 5.4 26.020.227.0
2019-Jul-12 04:00N 37°06' E 021°12'   320 / 171012.0 5.4 23.020.125.0
Track history (hours):
 
Tides and Currents Weather Stations Pressure Air Temp Water Temp Dewpoint Dewpoint Depression Visibility Wind Speed Wind Dir Waves Ship Positions

Barbarossa

Last reported at 2019-Jul-22 03:38 UTC. Time now 2019-Jul-23 22:36 UTC.
Position N 42°55' E 015°12'.

Length 294 m; draft 8.1 m.

Type: Ship. MMSI: 247282900.

Date/timePositionNaut miles runAvg speedWind from/ knotsBaromVisibWave heightAir tempDewpointWater temp
2019-Jul-22 03:38N 42°55' E 015°12'320.3
2019-Jul-22 03:28N 42°58' E 015°09'920.4
2019-Jul-22 03:00N 43°05' E 014°59'1020.2
2019-Jul-22 02:30N 43°12' E 014°50'1020.2
2019-Jul-22 02:00N 43°19' E 014°39'1020.4
2019-Jul-22 01:30N 43°26' E 014°30'1020.6
2019-Jul-22 01:00N 43°33' E 014°20'3196.1
2019-Jul-22 01:00N 43°30' E 014°18'1224.6 050 / 141016.0 5.4 27.024.327.0
2019-Jul-22 00:30N 43°40' E 014°09'1020.6
2019-Jul-22 00:00N 43°47' E 013°59'1020.5
2019-Jul-21 23:30N 43°54' E 013°48'1020.5
2019-Jul-21 23:00N 43°60' E 013°37'1020.5
2019-Jul-21 22:30N 44°05' E 013°25'1020.4
2019-Jul-21 22:00N 44°11' E 013°13'1020.2
2019-Jul-21 21:30N 44°21' E 013°08'1020.0
2019-Jul-21 21:00N 44°30' E 013°04'1019.8
2019-Jul-21 20:30N 44°40' E 012°60'1019.6
2019-Jul-21 20:00N 44°49' E 012°55'1019.8
2019-Jul-21 19:30N 44°58' E 012°49'1019.7
2019-Jul-21 19:00N 45°06' E 012°42'816.9
2019-Jul-21 18:30N 45°11' E 012°32'816.0
2019-Jul-21 18:00N 45°17' E 012°25'510.8
2019-Jul-21 17:30N 45°20' E 012°19'3 6.5
2019-Jul-21 17:00N 45°22' E 012°15'3 6.3
2019-Jul-21 16:30N 45°25' E 012°16'1 3.0
2019-Jul-21 16:00N 45°27' E 012°15'1 1.1
2019-Jul-21 15:28N 45°27' E 012°15'0 0.0
2019-Jul-21 15:00N 45°27' E 012°15'0 0.0
2019-Jul-21 14:30N 45°27' E 012°15'0 0.0
2019-Jul-21 14:00N 45°27' E 012°15'0 0.0
2019-Jul-21 13:29N 45°27' E 012°15'0 0.0
2019-Jul-21 12:59N 45°27' E 012°15'0 0.0
2019-Jul-21 12:30N 45°27' E 012°15'0 0.0
2019-Jul-21 12:00N 45°27' E 012°15'0 0.0
2019-Jul-21 11:29N 45°27' E 012°15'0 0.0
2019-Jul-21 10:59N 45°27' E 012°15'0 0.0
2019-Jul-21 10:28N 45°27' E 012°15'0 0.0
2019-Jul-21 10:00N 45°27' E 012°15'0 0.0
2019-Jul-21 09:30N 45°27' E 012°15'0 0.0
2019-Jul-21 08:58N 45°27' E 012°15'0 0.0
2019-Jul-21 08:30N 45°27' E 012°15'0 0.0
2019-Jul-21 08:00N 45°27' E 012°15'0 0.0
2019-Jul-21 07:30N 45°27' E 012°15'0 0.0
2019-Jul-21 07:00N 45°27' E 012°15'0 0.0
2019-Jul-21 06:29N 45°27' E 012°15'0 0.0
2019-Jul-21 06:01N 45°27' E 012°15'1 1.1
2019-Jul-21 05:31N 45°27' E 012°15'1 2.1
2019-Jul-21 05:00N 45°26' E 012°16'3 6.3
2019-Jul-21 04:30N 45°23' E 012°16'3 5.7
2019-Jul-21 04:00N 45°20' E 012°18'3 6.3
2019-Jul-21 03:30N 45°20' E 012°22'3 5.7
2019-Jul-21 03:00N 45°19' E 012°26'815.4
2019-Jul-21 02:31N 45°15' E 012°35'1020.0
2019-Jul-21 02:01N 45°09' E 012°46'25615080.1
2019-Jul-21 02:00N 45°00' E 018°48'251519.1 070 / 131020.010.8 26.024.627.0
2019-Jul-21 01:31N 44°60' E 012°53'1020.1
2019-Jul-21 01:01N 44°51' E 012°58'1020.2
2019-Jul-21 00:31N 44°41' E 013°03'1020.2
2019-Jul-21 00:01N 44°32' E 013°09'1020.2
2019-Jul-20 23:31N 44°22' E 013°13'1019.9
2019-Jul-20 23:01N 44°14' E 013°22'1020.2
2019-Jul-20 22:31N 44°08' E 013°33'1020.3
2019-Jul-20 22:01N 44°02' E 013°44'1020.3
2019-Jul-20 21:31N 43°56' E 013°55'1020.4
2019-Jul-20 21:01N 43°50' E 014°07'1020.6
2019-Jul-20 20:31N 43°44' E 014°19'1020.8
2019-Jul-20 20:01N 43°37' E 014°30'1020.7
2019-Jul-20 19:30N 43°31' E 014°41'1020.8
2019-Jul-20 19:01N 43°23' E 014°50'1020.9
2019-Jul-20 18:31N 43°16' E 015°01'1020.8
2019-Jul-20 18:01N 43°09' E 015°11'1020.8
2019-Jul-20 17:31N 43°03' E 015°22'1020.9
2019-Jul-20 17:01N 42°58' E 015°35'1121.9
2019-Jul-20 16:31N 42°53' E 015°49'1121.6
2019-Jul-20 16:01N 42°49' E 016°02'1121.2
2019-Jul-20 15:30N 42°45' E 016°16'1021.2
2019-Jul-20 15:01N 42°41' E 016°29'1720.9
2019-Jul-20 14:13N 42°40' E 016°52'83 6.2
2019-Jul-20 01:00N 41°48' E 018°18'5814.5 320 / 81018.010.8 24.021.126.0
2019-Jul-19 20:59N 40°52' E 018°39'2222.3
2019-Jul-19 20:00N 40°30' E 018°42'11714.7 340 / 91017.010.8 25.020.726.0
2019-Jul-19 12:00N 38°42' E 019°42'20711.4 330 / 121016.0 5.4 25.022.226.0
2019-Jul-18 17:43N 37°15' E 023°41'716.7
2019-Jul-18 17:19N 37°21' E 023°44'517.4
2019-Jul-18 17:01N 37°26' E 023°44'917.7
2019-Jul-18 16:31N 37°35' E 023°42'917.5
2019-Jul-18 16:01N 37°44' E 023°40'917.2
2019-Jul-18 15:31N 37°52' E 023°36'4 8.2
2019-Jul-18 14:58N 37°56' E 023°37'0 0.0
2019-Jul-18 14:25N 37°56' E 023°37'0 0.0
2019-Jul-18 13:58N 37°56' E 023°37'0 0.0
2019-Jul-18 13:28N 37°56' E 023°37'0 0.0
2019-Jul-18 12:58N 37°56' E 023°37'0 0.0
2019-Jul-18 12:28N 37°56' E 023°37'0 0.0
2019-Jul-18 11:58N 37°56' E 023°37'0 0.0
2019-Jul-18 11:28N 37°56' E 023°37'0 0.0
2019-Jul-18 10:58N 37°56' E 023°37'0 0.0
2019-Jul-18 10:28N 37°56' E 023°37'0 0.0
2019-Jul-18 09:58N 37°56' E 023°37'0 0.0
2019-Jul-18 09:28N 37°56' E 023°37'0 0.0
2019-Jul-18 08:58N 37°56' E 023°37'0 0.0
2019-Jul-18 08:28N 37°56' E 023°37'0 0.0
2019-Jul-18 07:58N 37°56' E 023°37'0 0.0
2019-Jul-18 07:28N 37°56' E 023°37'0 0.0
2019-Jul-18 07:00N 37°56' E 023°37'0 0.0
2019-Jul-18 06:31N 37°56' E 023°37'0 0.0
2019-Jul-18 05:59N 37°56' E 023°37'0 0.0
2019-Jul-18 05:29N 37°56' E 023°37'0 0.0
2019-Jul-18 04:58N 37°56' E 023°37'0 0.0
2019-Jul-18 04:22N 37°56' E 023°37'0 0.0
2019-Jul-18 04:00N 37°56' E 023°37'0 0.0
2019-Jul-18 03:30N 37°56' E 023°37'0 0.0
2019-Jul-18 02:59N 37°56' E 023°37'0 0.0
2019-Jul-18 02:28N 37°56' E 023°37'0 0.0
2019-Jul-18 02:00N 37°56' E 023°37'1 1.1
2019-Jul-18 01:30N 37°56' E 023°37'2 4.0
2019-Jul-18 01:00N 37°54' E 023°37'714.0
2019-Jul-18 00:30N 37°48' E 023°41'1019.8
2019-Jul-18 00:00N 37°39' E 023°46'1020.0
2019-Jul-17 23:30N 37°29' E 023°50'102 4.5
2019-Jul-17 01:00N 36°24' E 022°12'7919.7 040 / 161004.010.8 25.022.226.0
2019-Jul-16 21:00N 37°18' E 021°00'46710.9 120 / 271006.0 5.4 23.018.525.0
2019-Jul-15 02:00N 43°18' E 014°30'7416.7 070 / 201013.010.8 24.018.026.0
2019-Jul-14 21:32N 44°10' E 013°16'118.5
2019-Jul-14 21:29N 44°10' E 013°15'817.9
2019-Jul-14 21:00N 44°18' E 013°09'918.7
2019-Jul-14 20:30N 44°27' E 013°05'918.5
2019-Jul-14 20:00N 44°35' E 013°01'918.3
2019-Jul-14 19:30N 44°44' E 012°57'918.3
2019-Jul-14 19:00N 44°52' E 012°52'918.2
2019-Jul-14 18:30N 45°01' E 012°46'917.5
2019-Jul-14 18:00N 45°08' E 012°39'816.4
2019-Jul-14 17:30N 45°13' E 012°30'815.8
2019-Jul-14 17:00N 45°21' E 012°30'611.4
2019-Jul-14 16:30N 45°25' E 012°26'3 5.0
2019-Jul-14 16:00N 45°25' E 012°22'2 4.2
2019-Jul-14 15:30N 45°26' E 012°19'0 1.0
2019-Jul-14 15:00N 45°26' E 012°19'0 0.0
2019-Jul-14 14:30N 45°26' E 012°19'0 0.0
2019-Jul-14 14:00N 45°26' E 012°19'0 0.0
2019-Jul-14 13:29N 45°26' E 012°19'0 0.0
2019-Jul-14 12:59N 45°26' E 012°19'0 0.0
2019-Jul-14 12:29N 45°26' E 012°19'0 0.0
2019-Jul-14 11:59N 45°26' E 012°19'0 0.0
2019-Jul-14 11:28N 45°26' E 012°19'0 0.0
2019-Jul-14 11:00N 45°26' E 012°19'0 0.0
2019-Jul-14 10:29N 45°26' E 012°19'0 0.0
2019-Jul-14 10:00N 45°26' E 012°19'0 0.0
2019-Jul-14 09:30N 45°26' E 012°19'0 0.0
2019-Jul-14 09:00N 45°26' E 012°19'0 0.0
2019-Jul-14 08:30N 45°26' E 012°19'0 0.0
2019-Jul-14 08:00N 45°26' E 012°19'0 0.0
2019-Jul-14 07:28N 45°26' E 012°19'0 0.0
2019-Jul-14 06:58N 45°26' E 012°19'0 0.0
2019-Jul-14 06:28N 45°26' E 012°19'0 0.0
2019-Jul-14 05:58N 45°26' E 012°19'0 0.0
2019-Jul-14 05:30N 45°26' E 012°19'1 2.0
2019-Jul-14 05:00N 45°26' E 012°20'2 3.9
2019-Jul-14 04:30N 45°26' E 012°23'3 5.8
2019-Jul-14 04:00N 45°25' E 012°27'4 8.1
2019-Jul-14 03:31N 45°23' E 012°31'816.2
2019-Jul-14 03:01N 45°15' E 012°35'918.7
2019-Jul-14 02:31N 45°10' E 012°46'1020.9
2019-Jul-14 02:01N 45°00' E 012°53'1121.2
2019-Jul-14 01:31N 44°51' E 012°59'1121.1
2019-Jul-14 01:01N 44°41' E 013°04'3189.2
2019-Jul-14 01:00N 44°42' E 013°00'1326.6 040 / 171015.010.8 25.022.226.0
2019-Jul-14 00:30N 44°31' E 013°08'1121.2
2019-Jul-14 00:01N 44°20' E 013°13'1520.5
2019-Jul-13 23:16N 44°10' E 013°28'2120.7
2019-Jul-13 22:17N 43°58' E 013°51'1511.4
2019-Jul-13 21:00N 43°48' E 014°06'7826.1 030 / 151012.0 5.4 25.019.125.0
2019-Jul-13 18:00N 42°54' E 015°24'11614.5 050 / 101016.0 5.4 27.024.3
2019-Jul-13 10:00N 42°36' E 018°00'61 6.8 170 / 91013.0 5.4 25.019.126.0
2019-Jul-13 01:00N 41°36' E 018°18'6312.5 320 / 71015.010.8 25.022.226.0
2019-Jul-12 20:00N 40°36' E 018°42'5719.0 270 / 151014.0 5.4 23.018.525.0
2019-Jul-12 17:00N 39°42' E 019°06'8113.5 290 / 71013.0 5.4 24.021.124.0
2019-Jul-12 11:00N 38°30' E 019°54'5317.8 300 / 251015.010.8 26.018.626.0
2019-Jul-12 08:00N 37°42' E 020°24'5213.1 320 / 191014.0 5.4 26.020.227.0
2019-Jul-12 04:00N 37°06' E 021°12'   320 / 171012.0 5.4 23.020.125.0

Dump ship's entire track history